Time;durP1;ratioP1;P1;durP2;ratioP2;P2;SDS_P1;SDS_P2;PMS_P1;PMS_P2;Temp;Humidity;BMP_temperature;BMP_pressure;BME280_temperature;BME280_humidity;BME280_pressure;Samples;Min_cycle;Max_cycle;Signal;HPM_P1;HPM_P2
2020/12/24 00:00:17;;;;;;;21.55;20.65;;;;;;;7.10;85.21;99344.38;5033312;28;20505;-74
2020/12/24 00:02:44;;;;;;;21.52;20.63;;;;;;;7.07;85.12;99336.66;5033654;28;20098;-73
2020/12/24 00:05:11;;;;;;;20.88;20.05;;;;;;;7.07;85.15;99333.19;5033262;28;20456;-71
2020/12/24 00:07:38;;;;;;;21.80;20.90;;;;;;;7.04;85.04;99329.81;5033591;28;20041;-73
2020/12/24 00:10:04;;;;;;;21.73;20.83;;;;;;;7.06;85.22;99327.13;5033151;28;20045;-71
2020/12/24 00:12:32;;;;;;;19.67;18.88;;;;;;;7.06;85.17;99315.88;5033111;28;20057;-74
2020/12/24 00:14:58;;;;;;;21.00;20.15;;;;;;;7.06;85.30;99310.66;5033387;28;20058;-72
2020/12/24 00:17:25;;;;;;;20.52;19.73;;;;;;;7.06;85.09;99315.88;5033196;28;20137;-71
2020/12/24 00:19:52;;;;;;;20.17;19.38;;;;;;;7.04;85.08;99303.75;5033130;28;20073;-71
2020/12/24 00:22:18;;;;;;;20.88;20.05;;;;;;;7.06;85.25;99301.06;5032859;28;20053;-74
2020/12/24 00:24:44;;;;;;;19.70;18.90;;;;;;;7.05;85.26;99296.78;5033705;28;20053;-70
2020/12/24 00:27:11;;;;;;;22.38;21.48;;;;;;;7.08;85.08;99296.69;5033018;28;20050;-72
2020/12/24 00:29:39;;;;;;;21.55;20.65;;;;;;;7.06;85.15;99295.00;5033019;28;20049;-70
2020/12/24 00:32:05;;;;;;;21.75;20.85;;;;;;;7.05;85.13;99286.34;5033012;28;20507;-69
2020/12/24 00:34:31;;;;;;;20.98;20.13;;;;;;;7.04;85.17;99282.91;5033069;28;20053;-71
2020/12/24 00:36:58;;;;;;;20.58;19.77;;;;;;;7.01;85.15;99274.34;5032681;28;20069;-71
2020/12/24 00:39:24;;;;;;;21.05;20.17;;;;;;;6.98;85.21;99267.50;5032778;28;20128;-71
2020/12/24 00:41:51;;;;;;;21.33;20.42;;;;;;;6.96;85.08;99263.28;5032533;28;20561;-72
2020/12/24 00:44:18;;;;;;;20.75;19.95;;;;;;;6.92;85.20;99257.34;5032443;28;20087;-72
2020/12/24 00:46:44;;;;;;;20.35;19.55;;;;;;;6.90;85.21;99253.94;5032369;28;20052;-71
2020/12/24 00:49:10;;;;;;;18.77;17.98;;;;;;;6.88;85.13;99244.50;5032798;28;20049;-71
2020/12/24 00:51:37;;;;;;;20.15;19.35;;;;;;;6.87;85.23;99254.06;5032922;28;20081;-72
2020/12/24 00:54:04;;;;;;;19.55;18.75;;;;;;;6.85;85.26;99245.44;5032951;28;20046;-71
2020/12/24 00:56:30;;;;;;;18.85;18.05;;;;;;;6.84;85.34;99243.75;5032547;28;20145;-71
2020/12/24 00:58:56;;;;;;;20.42;19.63;;;;;;;6.85;85.30;99235.00;5032885;28;20473;-72
2020/12/24 01:01:22;;;;;;;19.48;18.67;;;;;;;6.85;85.47;99226.34;5032934;28;20053;-72
2020/12/24 01:03:50;;;;;;;18.98;18.17;;;;;;;6.84;85.28;99222.06;5032642;28;20049;-72
2020/12/24 01:06:16;;;;;;;19.10;18.30;;;;;;;6.84;85.33;99217.69;5032153;28;20053;-69
2020/12/24 01:08:42;;;;;;;19.35;18.55;;;;;;;6.83;85.37;99216.00;5032827;28;20561;-72
2020/12/24 01:11:09;;;;;;;20.63;19.83;;;;;;;6.83;85.53;99210.78;5033307;28;20041;-73
2020/12/24 01:13:36;;;;;;;20.05;19.25;;;;;;;6.83;85.30;99205.56;5033999;28;20077;-71
2020/12/24 01:16:03;;;;;;;19.75;18.95;;;;;;;6.86;85.36;99199.38;5033714;28;20124;-72
2020/12/24 01:18:29;;;;;;;19.75;18.95;;;;;;;6.87;85.36;99194.16;5032601;28;20052;-72
2020/12/24 01:20:59;;;;;;;18.65;17.85;;;;;;;6.85;85.32;99179.47;5032230;28;20076;-72
2020/12/24 01:23:25;;;;;;;19.17;18.38;;;;;;;6.87;85.33;99175.91;5033250;28;20489;-71
2020/12/24 01:25:54;;;;;;;19.52;18.73;;;;;;;6.88;85.36;99156.75;5033259;28;20128;-73
2020/12/24 01:28:21;;;;;;;18.05;17.33;;;;;;;6.89;85.29;99157.63;5032775;28;20099;-72
2020/12/24 01:30:49;;;;;;;19.65;18.85;;;;;;;6.89;85.33;99148.03;5032733;28;20072;-72
2020/12/24 01:33:15;;;;;;;18.08;17.35;;;;;;;6.90;85.49;99147.13;5032725;28;20053;-71
2020/12/24 01:35:42;;;;;;;21.40;20.50;;;;;;;6.89;85.40;99132.41;5032620;28;20144;-71
2020/12/24 01:38:08;;;;;;;20.50;19.70;;;;;;;6.91;85.41;99135.78;5032732;28;20548;-71
2020/12/24 01:40:34;;;;;;;21.05;20.17;;;;;;;6.93;85.49;99133.13;5032553;28;20294;-70
2020/12/24 01:43:00;;;;;;;20.63;19.83;;;;;;;6.96;85.43;99127.78;5032229;28;20049;-70
2020/12/24 01:45:27;;;;;;;19.48;18.67;;;;;;;6.98;85.57;99126.81;5032396;28;20379;-72
2020/12/24 01:47:53;;;;;;;18.73;17.92;;;;;;;7.00;85.30;99121.53;5032399;28;20132;-71
2020/12/24 01:50:21;;;;;;;21.58;20.67;;;;;;;6.98;85.36;99105.09;5032528;28;20136;-71
2020/12/24 01:52:49;;;;;;;18.35;17.55;;;;;;;6.96;85.47;99112.16;5032091;28;20413;-71
2020/12/24 01:55:16;;;;;;;19.77;18.98;;;;;;;6.98;85.57;99105.97;5032799;28;20052;-71
2020/12/24 01:57:43;;;;;;;17.77;17.05;;;;;;;7.02;85.53;99102.31;5032722;28;20099;-72
2020/12/24 02:00:11;;;;;;;20.55;19.75;;;;;;;7.07;85.36;99094.28;5032338;28;20516;-73
2020/12/24 02:02:38;;;;;;;20.67;19.88;;;;;;;7.10;85.39;99088.13;5032626;28;20076;-73
2020/12/24 02:05:06;;;;;;;20.13;19.33;;;;;;;7.11;85.43;99085.44;5032092;28;20548;-71
2020/12/24 02:07:32;;;;;;;17.70;17.00;;;;;;;7.13;85.58;99088.00;5032301;28;20052;-71
2020/12/24 02:09:59;;;;;;;18.70;17.90;;;;;;;7.14;85.36;99074.03;5032235;28;20053;-73
2020/12/24 02:12:26;;;;;;;18.67;17.88;;;;;;;7.14;85.37;99081.88;5031841;28;20057;-71
2020/12/24 02:14:52;;;;;;;21.38;20.48;;;;;;;7.17;85.41;99076.50;5032062;28;20045;-72
2020/12/24 02:17:18;;;;;;;18.13;17.40;;;;;;;7.17;85.41;99059.13;5034525;28;20041;-71
2020/12/24 02:19:45;;;;;;;21.02;20.17;;;;;;;7.19;85.39;99066.88;5035896;28;20049;-72
2020/12/24 02:22:13;;;;;;;20.35;19.55;;;;;;;7.16;85.49;99059.19;5037403;28;20064;-69
2020/12/24 02:24:41;;;;;;;20.38;19.58;;;;;;;7.12;85.34;99052.41;5036574;28;20128;-70
2020/12/24 02:27:07;;;;;;;19.23;18.42;;;;;;;7.11;85.55;99043.75;5035291;28;20056;-70
2020/12/24 02:29:34;;;;;;;18.23;17.48;;;;;;;7.10;85.34;99044.66;5035349;28;20053;-70
2020/12/24 02:32:01;;;;;;;20.85;20.05;;;;;;;7.12;85.62;99036.78;5035623;28;20386;-69
2020/12/24 02:34:39;;;;;;;19.65;18.85;;;;;;;7.10;85.63;99030.78;5035500;28;20123;-71
2020/12/24 02:37:09;;;;;;;18.83;18.02;;;;;;;7.11;85.57;99025.50;5035679;28;20128;-71
2020/12/24 02:39:36;;;;;;;19.08;18.27;;;;;;;7.12;85.63;99026.34;5035578;28;20505;-70
2020/12/24 02:42:02;;;;;;;20.98;20.15;;;;;;;7.12;85.65;99013.31;5035839;28;20049;-70
2020/12/24 02:44:28;;;;;;;20.50;19.70;;;;;;;7.13;85.83;99015.00;5034986;28;20512;-70
2020/12/24 02:46:55;;;;;;;19.13;18.33;;;;;;;7.14;85.83;99014.94;5036019;28;20455;-69
2020/12/24 02:49:21;;;;;;;20.45;19.65;;;;;;;7.15;85.85;99007.97;5035106;28;20061;-69
2020/12/24 02:51:47;;;;;;;18.40;17.60;;;;;;;7.15;85.69;99007.97;5035426;28;20076;-70
2020/12/24 02:54:13;;;;;;;19.95;19.15;;;;;;;7.16;85.69;99004.44;5034825;28;20077;-71
2020/12/24 02:56:41;;;;;;;20.05;19.25;;;;;;;7.20;85.93;99006.84;5035017;28;20041;-72
2020/12/24 02:59:07;;;;;;;19.65;18.85;;;;;;;7.21;85.85;99011.16;5035900;28;20049;-70
2020/12/24 03:01:33;;;;;;;19.48;18.67;;;;;;;7.23;85.94;99005.84;5034637;28;20132;-72
2020/12/24 03:03:59;;;;;;;19.55;18.75;;;;;;;7.27;85.99;98991.78;5034863;28;20042;-71
2020/12/24 03:06:25;;;;;;;20.00;19.20;;;;;;;7.29;85.96;99001.25;5034605;28;20057;-70
2020/12/24 03:08:51;;;;;;;21.25;20.35;;;;;;;7.31;85.88;99001.16;5034601;28;20052;-70
2020/12/24 03:11:17;;;;;;;18.83;18.02;;;;;;;7.33;85.92;99008.00;5034432;28;20046;-70
2020/12/24 03:13:44;;;;;;;21.35;20.45;;;;;;;7.34;85.88;98994.06;5034538;28;20128;-69
2020/12/24 03:16:10;;;;;;;19.83;19.02;;;;;;;7.38;85.91;98988.69;5034074;28;20554;-70
2020/12/24 03:18:36;;;;;;;20.10;19.30;;;;;;;7.40;85.81;98985.09;5034360;28;20053;-69
2020/12/24 03:21:03;;;;;;;19.33;18.52;;;;;;;7.44;85.83;98985.78;5033886;28;20045;-71
2020/12/24 03:23:29;;;;;;;19.83;19.02;;;;;;;7.48;85.91;98980.38;5034283;28;20045;-71
2020/12/24 03:25:55;;;;;;;20.02;19.23;;;;;;;7.49;85.98;98982.06;5034005;28;20445;-71
2020/12/24 03:28:22;;;;;;;21.10;20.23;;;;;;;7.51;85.99;98980.25;5033832;28;20106;-70
2020/12/24 03:30:49;;;;;;;20.35;19.55;;;;;;;7.54;86.01;98974.88;5033754;28;20053;-70
2020/12/24 03:33:15;;;;;;;20.40;19.60;;;;;;;7.58;86.11;98970.38;5034174;28;20132;-70
2020/12/24 03:35:42;;;;;;;18.92;18.13;;;;;;;7.61;85.98;98972.84;5034231;28;20085;-71
2020/12/24 03:38:08;;;;;;;21.92;21.02;;;;;;;7.65;85.94;98959.56;5034027;28;20045;-70
2020/12/24 03:40:34;;;;;;;20.75;19.95;;;;;;;7.70;85.98;98958.50;5034554;28;20128;-70
2020/12/24 03:43:01;;;;;;;19.60;18.80;;;;;;;7.74;86.00;98947.03;5034116;28;20081;-69
2020/12/24 03:45:28;;;;;;;22.73;21.83;;;;;;;7.78;86.02;98945.97;5033873;28;20571;-70
2020/12/24 03:47:55;;;;;;;22.02;21.13;;;;;;;7.82;86.04;98937.06;5033524;28;20067;-68
2020/12/24 03:50:21;;;;;;;20.75;19.95;;;;;;;7.84;85.99;98925.63;5033715;28;20140;-70
2020/12/24 03:52:47;;;;;;;20.08;19.27;;;;;;;7.88;85.93;98921.09;5033882;28;20051;-69
2020/12/24 03:55:13;;;;;;;20.58;19.77;;;;;;;7.93;85.89;98924.38;5033253;28;20493;-70
2020/12/24 03:57:39;;;;;;;21.27;20.38;;;;;;;7.97;86.07;98918.06;5033544;28;20521;-70
2020/12/24 04:00:05;;;;;;;20.08;19.27;;;;;;;8.01;86.08;98922.22;5033601;28;20481;-70
2020/12/24 04:02:31;;;;;;;19.20;18.40;;;;;;;8.05;86.03;98920.28;5033167;28;20471;-70
2020/12/24 04:04:58;;;;;;;19.48;18.67;;;;;;;8.09;86.08;98912.22;5033455;28;20547;-71
2020/12/24 04:07:24;;;;;;;20.20;19.40;;;;;;;8.17;86.21;98911.88;5033231;28;20477;-69
2020/12/24 04:09:50;;;;;;;21.15;20.25;;;;;;;8.20;86.06;98899.50;5033436;28;20139;-70
2020/12/24 04:12:16;;;;;;;20.80;19.98;;;;;;;8.27;86.19;98903.47;5033269;28;20094;-70
2020/12/24 04:14:42;;;;;;;21.77;20.88;;;;;;;8.34;86.21;98904.06;5034430;28;20052;-71
2020/12/24 04:17:09;;;;;;;19.17;18.38;;;;;;;8.39;86.14;98902.06;5033223;28;20124;-70
2020/12/24 04:19:35;;;;;;;19.73;18.92;;;;;;;8.44;86.21;98905.28;5033172;28;20056;-71
2020/12/24 04:22:01;;;;;;;17.95;17.23;;;;;;;8.49;86.25;98913.72;5032755;28;20530;-70
2020/12/24 04:24:28;;;;;;;20.45;19.65;;;;;;;8.53;86.11;98907.41;5033129;28;20087;-70
2020/12/24 04:26:55;;;;;;;23.73;22.80;;;;;;;8.60;86.35;98907.13;5032834;28;20504;-70
2020/12/24 04:29:21;;;;;;;20.60;19.80;;;;;;;8.65;86.14;98892.88;5033009;28;20141;-71
2020/12/24 04:31:47;;;;;;;19.88;19.08;;;;;;;8.71;86.16;98900.41;5032992;28;20042;-71
2020/12/24 04:34:13;;;;;;;21.23;20.33;;;;;;;8.75;86.27;98888.88;5032892;28;20132;-71
2020/12/24 04:36:39;;;;;;;20.45;19.65;;;;;;;8.84;86.21;98892.78;5032690;28;20047;-71
2020/12/24 04:39:06;;;;;;;21.77;20.88;;;;;;;8.91;86.12;98888.91;5032479;28;20132;-69
2020/12/24 04:41:34;;;;;;;19.83;19.02;;;;;;;8.98;86.47;98884.22;5032104;28;20057;-70
2020/12/24 04:44:01;;;;;;;21.60;20.70;;;;;;;9.07;86.67;98887.16;5032541;28;20136;-70
2020/12/24 04:46:29;;;;;;;20.60;19.80;;;;;;;9.13;86.28;98899.88;5032994;28;20128;-71
2020/12/24 04:48:57;;;;;;;21.05;20.17;;;;;;;9.23;86.47;98889.78;5033055;28;20045;-71
2020/12/24 04:51:23;;;;;;;19.83;19.02;;;;;;;9.29;86.42;98884.22;5032402;28;20056;-70
2020/12/24 04:53:49;;;;;;;20.52;19.73;;;;;;;9.37;86.37;98879.44;5032372;28;20064;-71
2020/12/24 04:56:16;;;;;;;20.17;19.38;;;;;;;9.44;86.56;98883.38;5032269;28;20566;-71
2020/12/24 04:58:43;;;;;;;19.60;18.80;;;;;;;9.51;86.37;98888.28;5032757;28;20569;-70
2020/12/24 05:01:14;;;;;;;21.40;20.50;;;;;;;9.59;86.48;98886.09;5032334;28;20053;-71
2020/12/24 05:03:40;;;;;;;20.70;19.88;;;;;;;9.71;86.12;98891.47;5032744;28;20087;-72
2020/12/24 05:06:06;;;;;;;20.35;19.55;;;;;;;9.82;86.55;98893.47;5032570;28;20061;-71
2020/12/24 05:08:32;;;;;;;21.45;20.55;;;;;;;9.92;86.48;98897.25;5036435;28;20124;-72
2020/12/24 05:11:06;;;;;;;22.00;21.10;;;;;;;10.05;86.70;98895.63;5032301;28;20576;-73
2020/12/24 05:13:33;;;;;;;21.27;20.40;;;;;;;10.20;86.41;98893.03;5032459;28;20050;-71
2020/12/24 05:16:13;;;;;;;20.85;20.02;;;;;;;10.29;86.58;98892.53;5032363;28;20045;-71
2020/12/24 05:18:39;;;;;;;19.35;18.55;;;;;;;10.39;86.47;98894.50;5032321;28;20049;-70
2020/12/24 05:21:05;;;;;;;21.65;20.75;;;;;;;10.46;86.48;98895.03;5032182;28;20080;-72
2020/12/24 05:23:32;;;;;;;22.95;22.05;;;;;;;10.53;86.32;98903.34;5032325;28;20147;-72
2020/12/24 05:25:58;;;;;;;21.33;20.42;;;;;;;10.59;86.42;98909.06;5032273;28;20094;-71
2020/12/24 05:28:25;;;;;;;20.10;19.30;;;;;;;10.64;86.25;98920.13;5032303;28;20046;-71
2020/12/24 05:30:53;;;;;;;22.38;21.48;;;;;;;10.68;86.30;98916.38;5032149;28;20420;-72
2020/12/24 05:33:27;;;;;;;21.63;20.73;;;;;;;10.72;86.05;98903.09;5032260;28;20046;-72
2020/12/24 05:35:53;;;;;;;22.02;21.13;;;;;;;10.76;86.03;98907.22;5032003;28;20050;-72
2020/12/24 05:38:32;;;;;;;21.20;20.30;;;;;;;10.76;85.89;98905.44;5032261;28;20048;-72
2020/12/24 05:40:58;;;;;;;21.15;20.25;;;;;;;10.80;85.97;98901.69;5032154;28;20045;-73
2020/12/24 05:43:24;;;;;;;22.33;21.42;;;;;;;10.80;85.90;98900.84;5031942;28;20390;-72
2020/12/24 05:46:03;;;;;;;21.60;20.70;;;;;;;10.81;85.86;98895.50;5032106;28;20424;-73
2020/12/24 05:48:33;;;;;;;21.45;20.55;;;;;;;10.83;85.95;98898.91;5032274;28;20056;-73
2020/12/24 05:50:59;;;;;;;21.73;20.83;;;;;;;10.85;85.77;98896.19;5032480;28;20390;-73
2020/12/24 05:53:25;;;;;;;20.08;19.27;;;;;;;10.88;85.65;98890.75;5036288;28;20046;-73
2020/12/24 05:55:51;;;;;;;21.50;20.60;;;;;;;10.88;85.71;98883.72;5035970;28;20053;-74
2020/12/24 05:58:18;;;;;;;22.35;21.45;;;;;;;10.90;85.68;98879.22;5038992;28;20049;-72
2020/12/24 06:00:45;;;;;;;21.38;20.48;;;;;;;10.93;85.61;98878.19;5038029;28;20076;-73
2020/12/24 06:03:16;;;;;;;22.10;21.20;;;;;;;10.93;85.81;98868.53;5035680;28;20438;-72
2020/12/24 06:05:54;;;;;;;21.42;20.52;;;;;;;10.94;85.64;98866.75;5035464;28;20420;-72
2020/12/24 06:08:23;;;;;;;20.42;19.63;;;;;;;10.97;85.65;98866.56;5035705;28;20057;-72
2020/12/24 06:11:01;;;;;;;22.95;22.05;;;;;;;10.98;85.52;98876.13;5035605;28;20045;-73
2020/12/24 06:13:35;;;;;;;19.95;19.15;;;;;;;11.02;85.79;98877.63;5035759;28;20064;-73
2020/12/24 06:16:03;;;;;;;21.83;20.92;;;;;;;11.04;85.60;98880.16;5035162;28;20500;-72
2020/12/24 06:18:32;;;;;;;23.92;22.95;;;;;;;11.03;85.54;98887.16;5035448;28;20046;-72
2020/12/24 06:21:00;;;;;;;21.67;20.77;;;;;;;11.04;85.61;98886.25;5035044;28;20050;-73
2020/12/24 06:23:31;;;;;;;21.48;20.58;;;;;;;11.04;85.47;98885.41;5035465;28;20054;-72
2020/12/24 06:26:01;;;;;;;21.35;20.45;;;;;;;11.04;85.67;98875.78;5035102;28;20053;-73
2020/12/24 06:28:29;;;;;;;18.98;18.17;;;;;;;11.05;85.41;98877.44;5035484;28;20051;-73
2020/12/24 06:30:58;;;;;;;23.90;22.95;;;;;;;11.05;85.57;98885.31;5035136;28;20057;-73
2020/12/24 06:33:29;;;;;;;22.27;21.38;;;;;;;11.06;85.52;98886.16;5035206;28;20052;-73
2020/12/24 06:35:56;;;;;;;22.42;21.52;;;;;;;11.06;85.43;98888.78;5034840;28;20048;-74
2020/12/24 06:38:52;;;;;;;22.17;21.27;;;;;;;11.05;85.55;98882.69;5035060;28;20099;-73
2020/12/24 06:41:23;;;;;;;21.05;20.17;;;;;;;11.06;85.78;98884.38;4954341;29;20062;-74
2020/12/24 06:43:49;;;;;;;20.55;19.75;;;;;;;11.07;85.66;98880.81;5017807;28;20057;-73
2020/12/24 06:46:16;;;;;;;21.77;20.88;;;;;;;11.10;85.66;98885.88;5034984;28;20049;-74
2020/12/24 06:48:42;;;;;;;22.80;21.90;;;;;;;11.11;85.56;98882.31;5034788;28;20156;-74
2020/12/24 06:51:12;;;;;;;22.20;21.30;;;;;;;11.12;85.59;98873.50;5034857;28;20057;-74
2020/12/24 06:53:39;;;;;;;21.55;20.65;;;;;;;11.15;85.44;98877.72;5034905;28;20477;-73
2020/12/24 06:56:23;;;;;;;23.38;22.48;;;;;;;11.14;85.87;98866.38;5034619;28;20405;-73
2020/12/24 06:58:53;;;;;;;20.42;19.63;;;;;;;11.18;85.57;98872.25;5034763;28;20544;-73
2020/12/24 07:01:20;;;;;;;21.58;20.67;;;;;;;11.18;85.58;98878.34;5034391;28;20607;-74
2020/12/24 07:03:47;;;;;;;19.40;18.60;;;;;;;11.17;85.49;98881.91;5035909;28;20045;-73
2020/12/24 07:06:34;;;;;;;22.70;21.80;;;;;;;11.15;85.48;98880.31;5034521;28;20132;-74
2020/12/24 07:09:00;;;;;;;20.25;19.45;;;;;;;11.14;85.43;98881.28;5034239;28;20053;-73
2020/12/24 07:11:44;;;;;;;22.60;21.70;;;;;;;11.11;85.46;98887.56;5034358;28;20053;-74
2020/12/24 07:14:26;;;;;;;20.48;19.67;;;;;;;11.11;85.45;98898.03;5033946;28;20485;-73
2020/12/24 07:16:53;;;;;;;22.30;21.40;;;;;;;11.12;85.75;98894.47;5034260;28;20129;-72
2020/12/24 07:19:19;;;;;;;20.42;19.63;;;;;;;11.12;85.51;98891.84;5034118;28;20137;-72
2020/12/24 07:21:48;;;;;;;21.55;20.65;;;;;;;11.12;85.68;98896.25;5034142;28;20420;-72
2020/12/24 07:24:16;;;;;;;21.83;20.92;;;;;;;11.12;85.43;98877.91;5033762;28;20136;-72
2020/12/24 07:26:43;;;;;;;21.52;20.63;;;;;;;11.09;85.50;98878.09;5033975;28;20069;-72
2020/12/24 07:29:13;;;;;;;22.58;21.67;;;;;;;11.08;85.48;98895.63;5034039;28;20045;-74
2020/12/24 07:31:39;;;;;;;19.73;18.92;;;;;;;11.10;85.49;98896.34;5033955;28;20068;-73
2020/12/24 07:34:05;;;;;;;20.25;19.45;;;;;;;11.08;85.47;98893.00;5034348;28;20045;-74
2020/12/24 07:36:32;;;;;;;21.92;21.02;;;;;;;11.08;85.52;98903.47;5033650;28;20572;-73
2020/12/24 07:38:59;;;;;;;20.95;20.10;;;;;;;11.09;85.41;98902.53;5033689;28;20079;-73
2020/12/24 07:41:25;;;;;;;22.70;21.80;;;;;;;11.09;85.48;98909.56;5047557;28;20049;-73
2020/12/24 07:43:51;;;;;;;19.67;18.88;;;;;;;11.10;85.45;98906.00;5053124;28;20053;-73
2020/12/24 07:46:22;;;;;;;21.17;20.30;;;;;;;11.06;85.35;98889.63;5053416;28;20132;-75
2020/12/24 07:48:48;;;;;;;19.75;18.95;;;;;;;11.05;85.53;98898.44;5053062;28;20056;-74
2020/12/24 07:51:15;;;;;;;20.35;19.55;;;;;;;11.05;85.67;98895.81;5052847;28;20041;-73
2020/12/24 07:53:42;;;;;;;20.35;19.55;;;;;;;11.08;85.66;98900.03;5053811;28;20048;-72
2020/12/24 07:56:09;;;;;;;21.85;20.95;;;;;;;11.06;85.57;98897.50;5053236;28;20128;-74
2020/12/24 07:58:36;;;;;;;20.65;19.85;;;;;;;11.07;85.46;98901.78;5053514;28;20091;-74
2020/12/24 08:01:04;;;;;;;20.95;20.13;;;;;;;11.07;85.68;98914.06;5043231;28;20045;-73
2020/12/24 08:03:30;;;;;;;18.65;17.85;;;;;;;11.06;85.73;98913.22;5034055;28;20053;-72
2020/12/24 08:06:02;;;;;;;20.63;19.83;;;;;;;11.05;85.61;98915.94;5033768;28;20054;-74
2020/12/24 08:08:35;;;;;;;20.65;19.85;;;;;;;11.05;85.51;98911.53;5007385;28;20484;-73
2020/12/24 08:11:01;;;;;;;19.88;19.08;;;;;;;11.07;85.46;98895.72;5032921;28;20417;-73
2020/12/24 08:13:28;;;;;;;20.40;19.60;;;;;;;11.07;85.67;98904.41;5042792;28;20493;-72
2020/12/24 08:15:57;;;;;;;20.25;19.45;;;;;;;11.08;85.66;98902.63;5037274;28;20099;-74
2020/12/24 08:18:30;;;;;;;20.70;19.90;;;;;;;11.09;85.67;98906.94;5036735;28;20076;-73
2020/12/24 08:21:03;;;;;;;22.05;21.15;;;;;;;11.09;85.88;98910.41;5035830;28;20067;-73
2020/12/24 08:23:39;;;;;;;19.95;19.15;;;;;;;11.11;85.89;98899.81;5043691;28;20041;-72
2020/12/24 08:26:07;;;;;;;20.00;19.20;;;;;;;11.12;85.97;98920.72;5034997;28;20049;-72
2020/12/24 08:28:35;;;;;;;21.75;20.85;;;;;;;11.12;85.82;98928.56;5033939;28;20485;-72
2020/12/24 08:31:01;;;;;;;19.90;19.10;;;;;;;11.13;85.85;98917.16;5032708;28;20063;-73
2020/12/24 08:33:27;;;;;;;19.40;18.60;;;;;;;11.17;85.82;98913.38;5032606;28;20053;-72
2020/12/24 08:35:54;;;;;;;20.10;19.30;;;;;;;11.18;85.48;98909.81;5032845;28;20086;-73
2020/12/24 08:38:20;;;;;;;22.02;21.13;;;;;;;11.18;85.83;98907.22;5034498;28;20055;-71
2020/12/24 08:40:47;;;;;;;21.33;20.42;;;;;;;11.19;85.58;98906.25;5051201;28;20053;-74
2020/12/24 08:43:13;;;;;;;19.33;18.52;;;;;;;11.20;85.83;98907.94;5051013;28;20139;-75
2020/12/24 08:45:45;;;;;;;20.98;20.13;;;;;;;11.22;85.76;98920.97;5052262;28;20123;-73
2020/12/24 08:48:11;;;;;;;20.65;19.85;;;;;;;11.23;85.56;98913.00;5052109;28;20576;-74
2020/12/24 08:50:40;;;;;;;19.67;18.88;;;;;;;11.22;85.65;98921.81;5052388;28;20135;-72
2020/12/24 08:53:06;;;;;;;21.40;20.50;;;;;;;11.24;85.90;98919.97;5051498;28;20084;-73
2020/12/24 08:55:33;;;;;;;19.25;18.45;;;;;;;11.25;85.73;98926.06;5052196;28;20052;-73
2020/12/24 08:58:00;;;;;;;19.83;19.02;;;;;;;11.26;85.87;98918.09;5052376;28;20044;-72
2020/12/24 09:00:26;;;;;;;20.30;19.50;;;;;;;11.26;85.74;98902.34;5051987;28;20052;-73
2020/12/24 09:02:53;;;;;;;21.33;20.42;;;;;;;11.25;85.69;98895.41;5052215;28;20455;-74
2020/12/24 09:05:25;;;;;;;19.80;19.00;;;;;;;11.26;85.79;98891.00;5052364;28;20469;-73
2020/12/24 09:07:51;;;;;;;;;;;;;;;11.35;85.62;98894.81;5052081;28;20152;-73
2020/12/24 09:10:24;;;;;;;20.15;19.35;;;;;;;11.25;85.62;98895.41;5051789;28;20440;-74
2020/12/24 09:12:56;;;;;;;20.00;19.20;;;;;;;11.22;85.80;98890.31;5052069;28;20498;-76
2020/12/24 09:15:25;;;;;;;19.15;18.35;;;;;;;11.23;85.82;98894.63;5052010;28;20068;-73
2020/12/24 09:17:53;;;;;;;21.20;20.33;;;;;;;11.24;85.67;98901.59;5051303;28;20045;-73
2020/12/24 09:20:24;;;;;;;19.85;19.05;;;;;;;11.25;85.63;98899.81;5051545;28;20049;-73
2020/12/24 09:22:51;;;;;;;;;;;;;;;11.32;85.33;98897.66;5050447;28;20057;-73
2020/12/24 09:25:31;;;;;;;20.70;19.90;;;;;;;11.21;85.68;98888.66;5048630;28;20000;-74
2020/12/24 09:27:58;;;;;;;18.63;17.83;;;;;;;11.23;85.81;98892.00;5055681;28;20101;-74
2020/12/24 09:30:24;;;;;;;21.45;20.55;;;;;;;11.22;85.80;98895.56;5055879;28;20045;-75
2020/12/24 09:32:55;;;;;;;18.83;18.02;;;;;;;11.22;85.91;98899.97;5056297;28;20463;-76
2020/12/24 09:35:22;;;;;;;20.80;19.98;;;;;;;11.26;85.94;98891.00;5056352;28;20243;-73
2020/12/24 09:37:49;;;;;;;19.42;18.63;;;;;;;11.27;85.79;98877.78;5056051;28;20049;-74
2020/12/24 09:40:16;;;;;;;19.77;18.98;;;;;;;11.28;85.60;98870.75;5056061;28;20137;-73
2020/12/24 09:42:42;;;;;;;19.48;18.67;;;;;;;11.27;85.94;98888.28;5055861;28;20049;-73
2020/12/24 09:45:08;;;;;;;20.15;19.35;;;;;;;11.29;85.79;98885.56;5055577;28;20086;-73
2020/12/24 09:47:34;;;;;;;20.27;19.48;;;;;;;11.30;85.73;98882.84;5056009;28;20055;-72
2020/12/24 09:50:01;;;;;;;20.58;19.77;;;;;;;11.30;85.86;98880.22;5055815;28;20148;-73
2020/12/24 09:52:27;;;;;;;19.13;18.33;;;;;;;11.32;85.72;98877.50;5055586;28;20128;-72
2020/12/24 09:54:54;;;;;;;19.30;18.50;;;;;;;11.33;85.94;98873.09;5055554;28;20045;-73
2020/12/24 09:57:20;;;;;;;19.77;18.98;;;;;;;11.34;85.69;98882.66;5059203;28;20041;-72
2020/12/24 09:59:46;;;;;;;18.50;17.70;;;;;;;11.35;85.79;98874.69;5055765;28;20047;-72
2020/12/24 10:02:12;;;;;;;19.55;18.75;;;;;;;11.37;85.87;98878.03;5055265;28;20053;-72
2020/12/24 10:04:38;;;;;;;19.10;18.30;;;;;;;11.38;85.91;98873.63;5055284;28;20076;-73
2020/12/24 10:07:06;;;;;;;20.48;19.67;;;;;;;11.40;85.91;98884.88;5055318;28;20079;-72
2020/12/24 10:09:32;;;;;;;19.00;18.20;;;;;;;11.42;85.92;98885.63;5055414;28;20041;-72
2020/12/24 10:11:59;;;;;;;18.73;17.92;;;;;;;11.43;85.68;98892.53;5055290;28;20054;-72
2020/12/24 10:14:25;;;;;;;19.25;18.45;;;;;;;11.43;85.83;98895.16;5055264;28;20056;-72
2020/12/24 10:16:51;;;;;;;18.42;17.65;;;;;;;11.44;85.72;98878.47;5054906;28;20140;-72
2020/12/24 10:19:17;;;;;;;20.58;19.77;;;;;;;11.46;85.75;98881.88;5055321;28;20045;-72
2020/12/24 10:21:44;;;;;;;20.38;19.58;;;;;;;11.48;85.75;98874.75;5054753;28;20052;-71
2020/12/24 10:24:10;;;;;;;19.08;18.27;;;;;;;11.50;85.69;98880.75;5055142;28;20041;-71
2020/12/24 10:26:38;;;;;;;21.08;20.20;;;;;;;11.50;85.56;98883.38;5054851;28;20051;-72
2020/12/24 10:29:05;;;;;;;19.00;18.20;;;;;;;11.51;85.59;98870.16;5054978;28;20128;-73
2020/12/24 10:31:31;;;;;;;20.15;19.35;;;;;;;11.51;85.93;98864.06;5055958;28;20135;-73
2020/12/24 10:33:57;;;;;;;20.95;20.10;;;;;;;11.51;85.75;98870.16;5054577;28;20049;-73
2020/12/24 10:36:23;;;;;;;17.25;16.55;;;;;;;11.53;85.74;98864.78;5054212;28;20139;-74
2020/12/24 10:38:49;;;;;;;19.27;18.48;;;;;;;11.54;85.97;98853.34;5054854;28;20132;-72
2020/12/24 10:41:16;;;;;;;19.95;19.15;;;;;;;11.55;85.73;98849.78;5054482;28;20045;-73
2020/12/24 10:43:42;;;;;;;20.48;19.67;;;;;;;11.56;85.78;98862.81;5056716;28;20068;-73
2020/12/24 10:46:15;;;;;;;19.70;18.90;;;;;;;11.57;85.74;98866.28;5054864;28;20064;-72
2020/12/24 10:48:41;;;;;;;21.00;20.17;;;;;;;11.58;85.79;98871.41;5054932;28;20044;-71
2020/12/24 10:51:08;;;;;;;20.42;19.63;;;;;;;11.57;85.88;98864.50;5054869;28;20132;-71
2020/12/24 10:53:34;;;;;;;17.90;17.20;;;;;;;11.57;85.85;98868.91;5054665;28;20404;-71
2020/12/24 10:56:00;;;;;;;19.55;18.75;;;;;;;11.57;85.74;98859.25;5054666;28;20132;-73
2020/12/24 10:58:26;;;;;;;20.42;19.63;;;;;;;11.61;85.84;98844.97;5054018;28;20049;-71
2020/12/24 11:00:52;;;;;;;17.65;16.95;;;;;;;11.64;85.95;98838.69;5054489;28;20132;-72
2020/12/24 11:03:21;;;;;;;18.63;17.83;;;;;;;11.66;85.79;98847.31;5054345;28;20055;-72
2020/12/24 11:05:47;;;;;;;18.85;18.05;;;;;;;11.67;85.77;98837.66;5054139;28;20063;-73
2020/12/24 11:08:13;;;;;;;20.98;20.10;;;;;;;11.67;85.59;98829.78;5054413;28;20056;-70
2020/12/24 11:10:39;;;;;;;19.02;18.23;;;;;;;11.66;85.75;98830.69;5054135;28;20489;-71
2020/12/24 11:13:05;;;;;;;19.88;19.08;;;;;;;11.64;85.70;98829.97;5054028;28;20515;-71
2020/12/24 11:15:31;;;;;;;20.15;19.35;;;;;;;11.52;85.21;98821.97;5054067;28;20049;-73
2020/12/24 11:17:57;;;;;;;19.73;18.92;;;;;;;11.30;84.79;98817.25;5054009;28;20480;-71
2020/12/24 11:20:24;;;;;;;20.05;19.25;;;;;;;11.05;84.76;98809.25;5053861;28;20053;-73
2020/12/24 11:22:50;;;;;;;21.23;20.33;;;;;;;10.84;84.50;98789.63;5054003;28;20072;-72